Time;durP1;ratioP1;P1;durP2;ratioP2;P2;SDS_P1;SDS_P2;PMS_P1;PMS_P2;Temp;Humidity;BMP_temperature;BMP_pressure;BME280_temperature;BME280_humidity;BME280_pressure;Samples;Min_cycle;Max_cycle;Signal;HPM_P1;HPM_P2
2023/09/12 00:00:40;;;;;;;;;;;22.10;99.90;;;;;;15612711;22;19934;-83
2023/09/12 00:06:42;;;;;;;;;;;22.00;99.90;;;;;;15602828;22;19930;-82
2023/09/12 00:12:44;;;;;;;;;;;21.90;99.90;;;;;;15604344;22;19923;-82
2023/09/12 00:18:45;;;;;;;;;;;21.70;99.90;;;;;;15603092;22;19927;-82
2023/09/12 00:24:47;;;;;;;;;;;21.70;99.90;;;;;;15608488;22;19938;-82
2023/09/12 00:30:49;;;;;;;;;;;21.60;99.90;;;;;;15599114;22;19933;-82
2023/09/12 00:36:51;;;;;;;;;;;21.30;99.90;;;;;;15636367;22;19930;-81
2023/09/12 00:42:53;;;;;;;;;;;21.30;99.90;;;;;;15600991;22;19923;-83
2023/09/12 00:48:57;;;;;;;;;;;21.40;99.90;;;;;;15615414;22;20332;-83
2023/09/12 00:54:59;;;;;;;;;;;21.00;99.90;;;;;;15612618;22;20048;-82
2023/09/12 01:01:01;;;;;;;;;;;21.10;99.90;;;;;;15608037;22;20312;-82
2023/09/12 01:07:04;;;;;;;;;;;21.20;99.90;;;;;;15639661;22;19961;-82
2023/09/12 01:13:06;;;;;;;;;;;21.40;99.90;;;;;;15603569;22;19934;-82
2023/09/12 01:19:09;;;;;;;;;;;21.50;99.90;;;;;;15644165;22;19927;-84
2023/09/12 01:25:14;;;;;;;;;;;21.10;99.90;;;;;;15654836;22;19933;-84
2023/09/12 01:31:17;;;;;;;;;;;20.50;99.90;;;;;;15683136;22;19906;-84
2023/09/12 01:37:19;;;;;;;;;;;20.40;99.90;;;;;;15702743;22;19930;-84
2023/09/12 01:43:23;;;;;;;;;;;20.30;99.90;;;;;;15667527;22;19950;-82
2023/09/12 01:49:26;;;;;;;;;;;20.40;99.90;;;;;;15623142;22;20360;-84
2023/09/12 01:55:28;;;;;;;;;;;20.50;99.90;;;;;;15613299;22;19923;-84
2023/09/12 02:01:30;;;;;;;;;;;20.60;99.90;;;;;;15613510;22;19927;-84
2023/09/12 02:07:36;;;;;;;;;;;20.60;99.90;;;;;;15615701;22;19957;-84
2023/09/12 02:13:37;;;;;;;;;;;20.80;99.90;;;;;;15637563;22;20316;-85
2023/09/12 02:19:39;;;;;;;;;;;20.90;99.90;;;;;;15605343;22;19923;-84
2023/09/12 02:25:41;;;;;;;;;;;20.90;99.90;;;;;;15632410;22;19927;-85
2023/09/12 02:31:43;;;;;;;;;;;20.90;99.90;;;;;;15635799;22;19919;-84
2023/09/12 02:37:44;;;;;;;;;;;21.00;99.90;;;;;;15622290;22;20355;-85
2023/09/12 02:43:46;;;;;;;;;;;20.80;99.90;;;;;;15608441;22;19934;-83
2023/09/12 02:49:48;;;;;;;;;;;20.30;99.90;;;;;;15602857;22;20252;-83
2023/09/12 02:55:51;;;;;;;;;;;20.10;99.90;;;;;;15627014;22;19926;-83
2023/09/12 03:01:53;;;;;;;;;;;20.20;99.90;;;;;;15676573;22;19967;-84
2023/09/12 03:07:54;;;;;;;;;;;20.20;99.90;;;;;;15613729;22;19923;-82
2023/09/12 03:13:56;;;;;;;;;;;20.10;99.90;;;;;;15633565;22;19993;-81
2023/09/12 03:19:58;;;;;;;;;;;20.00;99.90;;;;;;15601183;22;20255;-82
2023/09/12 03:26:03;;;;;;;;;;;19.70;99.90;;;;;;15637973;22;19924;-82
2023/09/12 03:32:05;;;;;;;;;;;19.50;99.90;;;;;;15630790;22;19923;-83
2023/09/12 03:38:07;;;;;;;;;;;19.40;99.90;;;;;;15603939;22;19984;-83
2023/09/12 03:44:09;;;;;;;;;;;19.70;99.90;;;;;;15634896;22;20089;-83
2023/09/12 03:50:11;;;;;;;;;;;19.80;99.90;;;;;;15621263;22;20341;-83
2023/09/12 03:56:14;;;;;;;;;;;20.00;99.90;;;;;;15638688;22;19934;-82
2023/09/12 04:02:15;;;;;;;;;;;20.00;99.90;;;;;;15607150;22;19922;-83
2023/09/12 04:08:17;;;;;;;;;;;20.00;99.90;;;;;;15590789;22;19962;-85
2023/09/12 04:14:20;;;;;;;;;;;19.60;99.90;;;;;;15601458;22;19923;-83
2023/09/12 04:20:22;;;;;;;;;;;19.60;99.90;;;;;;15629889;22;19933;-82
2023/09/12 04:26:23;;;;;;;;;;;19.70;99.90;;;;;;15602220;22;19923;-83
2023/09/12 04:32:25;;;;;;;;;;;19.80;99.90;;;;;;15604660;22;19922;-85
2023/09/12 04:38:27;;;;;;;;;;;19.70;99.90;;;;;;15589480;22;19927;-84
2023/09/12 04:44:29;;;;;;;;;;;19.40;99.90;;;;;;15627757;22;20004;-83
2023/09/12 04:50:31;;;;;;;;;;;19.50;99.90;;;;;;15604818;22;20264;-84
2023/09/12 04:56:32;;;;;;;;;;;19.50;99.90;;;;;;15612100;22;19946;-84
2023/09/12 05:02:34;;;;;;;;;;;19.70;99.90;;;;;;15601942;22;19930;-84
2023/09/12 05:08:36;;;;;;;;;;;19.60;99.90;;;;;;15601617;22;20328;-84
2023/09/12 05:14:38;;;;;;;;;;;19.60;99.90;;;;;;15634255;22;19923;-84
2023/09/12 05:20:43;;;;;;;;;;;19.30;99.90;;;;;;15606365;22;19923;-81
2023/09/12 05:26:45;;;;;;;;;;;19.20;99.90;;;;;;15632930;22;19977;-82
2023/09/12 05:32:48;;;;;;;;;;;19.30;99.90;;;;;;15634681;22;20288;-81
2023/09/12 05:38:50;;;;;;;;;;;18.90;99.90;;;;;;15604066;22;19923;-81
2023/09/12 05:44:53;;;;;;;;;;;18.60;99.90;;;;;;15655187;22;19907;-81
2023/09/12 05:50:55;;;;;;;;;;;18.90;99.90;;;;;;15674540;22;20266;-82
2023/09/12 05:56:56;;;;;;;;;;;18.90;99.90;;;;;;15650983;22;19933;-82
2023/09/12 06:02:58;;;;;;;;;;;18.90;99.90;;;;;;15619107;22;20008;-82
2023/09/12 06:09:00;;;;;;;;;;;18.80;99.90;;;;;;15607869;22;19923;-82
2023/09/12 06:15:04;;;;;;;;;;;18.60;99.90;;;;;;15604495;22;20360;-82
2023/09/12 06:21:08;;;;;;;;;;;18.60;99.90;;;;;;15612435;22;19923;-82
2023/09/12 06:27:13;;;;;;;;;;;18.30;99.90;;;;;;15612840;22;20345;-82
2023/09/12 06:33:15;;;;;;;;;;;18.50;99.90;;;;;;15639307;22;19923;-82
2023/09/12 06:39:17;;;;;;;;;;;18.60;99.90;;;;;;15612031;22;19923;-81
2023/09/12 06:45:18;;;;;;;;;;;18.50;99.90;;;;;;15605549;22;19923;-82
2023/09/12 06:51:23;;;;;;;;;;;18.30;99.90;;;;;;15637359;22;19927;-83
2023/09/12 06:57:25;;;;;;;;;;;18.30;99.90;;;;;;15599775;22;19941;-82
2023/09/12 07:03:27;;;;;;;;;;;18.40;99.90;;;;;;15609533;22;19923;-83
2023/09/12 07:09:30;;;;;;;;;;;18.40;99.90;;;;;;15598982;22;19937;-83
2023/09/12 07:15:32;;;;;;;;;;;18.40;99.90;;;;;;15628248;22;20325;-82
2023/09/12 07:21:33;;;;;;;;;;;18.60;99.90;;;;;;15608778;22;20042;-82
2023/09/12 07:27:36;;;;;;;;;;;18.60;99.90;;;;;;15636345;22;19923;-83
2023/09/12 07:33:37;;;;;;;;;;;18.70;99.90;;;;;;15600717;22;20309;-85
2023/09/12 07:39:39;;;;;;;;;;;18.60;99.90;;;;;;15600153;22;19930;-84
2023/09/12 07:45:41;;;;;;;;;;;18.40;99.90;;;;;;15627825;22;19934;-84
2023/09/12 07:51:43;;;;;;;;;;;18.10;99.90;;;;;;15605828;22;20443;-82
2023/09/12 07:57:45;;;;;;;;;;;18.20;99.90;;;;;;15601496;22;20097;-84
2023/09/12 08:03:47;;;;;;;;;;;18.30;99.90;;;;;;15612604;22;19923;-85
2023/09/12 08:09:50;;;;;;;;;;;18.40;99.90;;;;;;15601230;22;20336;-84
2023/09/12 08:15:52;;;;;;;;;;;18.20;99.90;;;;;;15595782;22;20009;-85
2023/09/12 08:21:54;;;;;;;;;;;17.90;99.90;;;;;;15597419;22;20341;-85
2023/09/12 08:27:56;;;;;;;;;;;17.80;99.90;;;;;;15597473;22;19930;-83
2023/09/12 08:33:58;;;;;;;;;;;17.90;99.90;;;;;;15604747;22;19923;-85
2023/09/12 08:40:01;;;;;;;;;;;18.00;99.90;;;;;;15603174;22;19923;-85
2023/09/12 08:46:04;;;;;;;;;;;17.90;99.90;;;;;;15592383;22;19930;-83
2023/09/12 08:52:06;;;;;;;;;;;17.80;99.90;;;;;;15630317;22;19923;-88
2023/09/12 08:58:08;;;;;;;;;;;17.80;99.90;;;;;;15632332;22;20019;-87
2023/09/12 09:04:10;;;;;;;;;;;17.80;99.90;;;;;;15594013;22;19923;-87
2023/09/12 09:10:16;;;;;;;;;;;17.80;99.90;;;;;;15593320;22;19927;-86
2023/09/12 09:16:21;;;;;;;;;;;17.80;99.90;;;;;;15590640;22;20302;-83
2023/09/12 09:22:23;;;;;;;;;;;17.80;99.90;;;;;;15620451;22;19945;-85
2023/09/12 09:28:26;;;;;;;;;;;17.80;99.90;;;;;;15597767;22;19923;-86
2023/09/12 09:34:29;;;;;;;;;;;17.80;99.90;;;;;;15595826;22;20073;-86
2023/09/12 09:40:32;;;;;;;;;;;17.70;99.90;;;;;;15600774;22;19923;-87
2023/09/12 09:46:37;;;;;;;;;;;17.80;99.90;;;;;;15601985;22;19930;-85
2023/09/12 09:52:39;;;;;;;;;;;17.90;99.90;;;;;;15624720;22;19922;-86
2023/09/12 09:58:50;;;;;;;;;;;17.80;99.90;;;;;;15626409;22;19988;-86
2023/09/12 10:04:53;;;;;;;;;;;17.80;99.90;;;;;;15624454;22;19930;-85
2023/09/12 10:10:59;;;;;;;;;;;17.80;99.90;;;;;;15593336;22;19996;-85
2023/09/12 10:17:01;;;;;;;;;;;17.70;99.90;;;;;;15597522;22;19930;-86
2023/09/12 10:23:11;;;;;;;;;;;17.70;99.90;;;;;;15606036;22;19994;-86
2023/09/12 10:29:17;;;;;;;;;;;17.80;99.90;;;;;;15597913;22;19926;-85
2023/09/12 10:35:18;;;;;;;;;;;17.80;99.90;;;;;;15592141;22;20232;-83
2023/09/12 10:41:23;;;;;;;;;;;17.80;99.90;;;;;;15601363;22;19972;-86
2023/09/12 10:47:26;;;;;;;;;;;17.80;99.90;;;;;;15600560;22;19934;-81
2023/09/12 10:53:28;;;;;;;;;;;17.80;99.90;;;;;;15596616;22;19922;-86
2023/09/12 10:59:31;;;;;;;;;;;17.80;99.90;;;;;;15596356;22;19929;-86
2023/09/12 11:05:33;;;;;;;;;;;17.80;99.90;;;;;;15608643;22;20425;-85
2023/09/12 11:11:35;;;;;;;;;;;17.80;99.90;;;;;;15611951;22;19914;-84
2023/09/12 11:17:40;;;;;;;;;;;17.80;99.90;;;;;;15705125;22;19949;-83
2023/09/12 11:23:42;;;;;;;;;;;17.70;99.90;;;;;;15680000;22;19923;-83
2023/09/12 11:29:45;;;;;;;;;;;17.90;99.90;;;;;;15692554;22;19951;-84
2023/09/12 11:35:51;;;;;;;;;;;18.10;99.90;;;;;;15600100;22;19919;-84
2023/09/12 11:41:55;;;;;;;;;;;18.30;99.90;;;;;;15589555;22;19934;-87
2023/09/12 11:47:56;;;;;;;;;;;18.70;99.90;;;;;;15559868;22;20245;-87
2023/09/12 11:53:59;;;;;;;;;;;19.40;99.90;;;;;;15558846;22;20033;-86
2023/09/12 12:00:08;;;;;;;;;;;20.10;99.90;;;;;;15541726;22;19924;-88
2023/09/12 12:06:10;;;;;;;;;;;20.70;99.90;;;;;;15539381;22;19923;-87
2023/09/12 12:12:12;;;;;;;;;;;21.00;99.90;;;;;;15624015;22;19931;-87
2023/09/12 12:18:14;;;;;;;;;;;21.40;99.90;;;;;;15614790;22;20352;-87
2023/09/12 12:24:17;;;;;;;;;;;21.50;99.90;;;;;;15556590;22;19923;-88
2023/09/12 12:30:19;;;;;;;;;;;21.90;99.90;;;;;;15553616;22;19969;-87
2023/09/12 12:36:21;;;;;;;;;;;21.80;99.90;;;;;;15548214;22;19966;-87
2023/09/12 12:42:24;;;;;;;;;;;21.90;99.90;;;;;;15546403;22;19934;-85
2023/09/12 12:48:34;;;;;;;;;;;21.90;99.90;;;;;;15544180;22;20261;-85
2023/09/12 12:54:36;;;;;;;;;;;21.70;99.90;;;;;;15551414;22;20287;-86
2023/09/12 13:00:39;;;;;;;;;;;21.80;99.90;;;;;;15544916;22;19930;-86
2023/09/12 13:06:41;;;;;;;;;;;21.90;99.90;;;;;;15542408;22;20261;-84
2023/09/12 13:12:45;;;;;;;;;;;21.60;99.90;;;;;;15524052;22;19950;-85
2023/09/12 13:18:47;;;;;;;;;;;21.20;99.90;;;;;;15544545;22;19945;-86
2023/09/12 13:24:49;;;;;;;;;;;20.70;99.90;;;;;;15549044;22;19930;-85
2023/09/12 13:30:54;;;;;;;;;;;21.10;99.90;;;;;;15556347;22;19919;-86
2023/09/12 13:36:57;;;;;;;;;;;20.80;99.90;;;;;;15600842;22;20292;-84
2023/09/12 13:43:13;;;;;;;;;;;21.10;99.90;;;;;;15623671;22;20250;-83
2023/09/12 13:49:15;;;;;;;;;;;21.30;99.90;;;;;;15597435;22;20264;-85
2023/09/12 13:55:16;;;;;;;;;;;21.60;99.90;;;;;;15592613;22;19919;-84
2023/09/12 14:01:38;;;;;;;;;;;21.80;99.90;;;;;;15606335;22;19923;-85
2023/09/12 14:07:40;;;;;;;;;;;21.80;99.90;;;;;;15587422;22;19923;-84
2023/09/12 14:13:42;;;;;;;;;;;21.70;99.90;;;;;;15604256;22;19946;-84
2023/09/12 14:19:45;;;;;;;;;;;21.50;99.90;;;;;;15628195;22;19923;-84
2023/09/12 14:25:48;;;;;;;;;;;21.60;99.90;;;;;;15606041;22;19922;-83
2023/09/12 14:31:52;;;;;;;;;;;21.70;99.90;;;;;;15597670;22;19934;-84
2023/09/12 14:37:58;;;;;;;;;;;21.70;99.90;;;;;;15605999;22;19946;-84
2023/09/12 14:44:00;;;;;;;;;;;21.70;99.90;;;;;;15606496;22;20390;-84
2023/09/12 14:50:02;;;;;;;;;;;21.80;99.90;;;;;;15599219;22;19923;-84
2023/09/12 14:56:04;;;;;;;;;;;21.90;99.90;;;;;;15606267;22;20009;-85
2023/09/12 15:02:06;;;;;;;;;;;22.00;99.90;;;;;;15600020;22;19922;-85
2023/09/12 15:08:08;;;;;;;;;;;22.00;99.90;;;;;;15598647;22;19957;-85
2023/09/12 15:14:10;;;;;;;;;;;22.00;99.90;;;;;;15594037;22;19959;-84
2023/09/12 15:20:11;;;;;;;;;;;21.80;99.90;;;;;;15594582;22;19919;-84
2023/09/12 15:26:13;;;;;;;;;;;21.80;99.90;;;;;;15609186;22;19922;-84
2023/09/12 15:32:15;;;;;;;;;;;21.40;99.90;;;;;;15605214;22;19923;-84
2023/09/12 15:38:17;;;;;;;;;;;21.30;99.90;;;;;;15604177;22;19927;-85
2023/09/12 15:44:19;;;;;;;;;;;21.50;99.90;;;;;;15602934;22;19923;-85
2023/09/12 15:50:21;;;;;;;;;;;21.60;99.90;;;;;;15596170;22;20510;-85
2023/09/12 15:56:22;;;;;;;;;;;21.80;99.90;;;;;;15598093;22;19930;-85
2023/09/12 16:02:24;;;;;;;;;;;22.40;99.90;;;;;;15598645;22;20324;-85
2023/09/12 16:08:26;;;;;;;;;;;22.30;99.90;;;;;;15595715;22;19922;-85
2023/09/12 16:14:28;;;;;;;;;;;22.60;99.90;;;;;;15629102;22;19930;-85
2023/09/12 16:20:30;;;;;;;;;;;22.70;99.90;;;;;;15605915;22;20248;-85
2023/09/12 16:26:32;;;;;;;;;;;22.80;99.90;;;;;;15608147;22;20341;-85
2023/09/12 16:32:37;;;;;;;;;;;22.80;99.90;;;;;;15596395;22;19926;-85
2023/09/12 16:38:39;;;;;;;;;;;22.30;99.90;;;;;;15598819;22;19934;-84
2023/09/12 16:44:41;;;;;;;;;;;21.90;99.90;;;;;;15604327;22;19946;-85
2023/09/12 16:50:46;;;;;;;;;;;21.60;99.90;;;;;;15629274;22;20266;-85
2023/09/12 16:56:48;;;;;;;;;;;21.10;99.90;;;;;;15598680;22;19923;-85
2023/09/12 17:02:50;;;;;;;;;;;20.60;99.90;;;;;;15633029;22;19946;-84
2023/09/12 17:08:51;;;;;;;;;;;20.30;99.90;;;;;;15632833;22;20008;-85
2023/09/12 17:14:53;;;;;;;;;;;20.20;99.90;;;;;;15591645;22;19950;-85
2023/09/12 17:20:55;;;;;;;;;;;20.10;99.90;;;;;;15598938;22;19922;-85
2023/09/12 17:26:57;;;;;;;;;;;20.20;99.90;;;;;;15592396;22;19989;-85
2023/09/12 17:32:59;;;;;;;;;;;20.10;99.90;;;;;;15600137;22;19948;-85
2023/09/12 17:39:01;;;;;;;;;;;19.90;99.90;;;;;;15597801;22;20360;-84
2023/09/12 17:45:03;;;;;;;;;;;19.80;99.90;;;;;;15623601;22;20323;-85
2023/09/12 17:51:05;;;;;;;;;;;19.60;99.90;;;;;;15601002;22;20011;-85
2023/09/12 17:57:07;;;;;;;;;;;19.70;99.90;;;;;;15597108;22;19919;-85
2023/09/12 18:03:09;;;;;;;;;;;19.60;99.90;;;;;;15601988;22;19923;-85
2023/09/12 18:09:11;;;;;;;;;;;19.60;99.90;;;;;;15596695;22;19922;-84
2023/09/12 18:15:13;;;;;;;;;;;19.50;99.90;;;;;;15628513;22;20345;-84
2023/09/12 18:21:15;;;;;;;;;;;19.40;99.90;;;;;;15636300;22;20041;-84
2023/09/12 18:27:16;;;;;;;;;;;19.40;99.90;;;;;;15606868;22;19923;-84
2023/09/12 18:33:18;;;;;;;;;;;19.30;99.90;;;;;;15605599;22;20408;-84
2023/09/12 18:39:21;;;;;;;;;;;19.20;99.90;;;;;;15634710;22;20248;-84
2023/09/12 18:45:23;;;;;;;;;;;19.20;99.90;;;;;;15630570;22;19965;-84
2023/09/12 18:51:25;;;;;;;;;;;19.20;99.90;;;;;;15603833;22;20839;-84
2023/09/12 18:57:27;;;;;;;;;;;19.20;99.90;;;;;;15595968;22;19923;-84
2023/09/12 19:03:29;;;;;;;;;;;19.20;99.90;;;;;;15603478;22;19930;-85
2023/09/12 19:09:31;;;;;;;;;;;19.20;99.90;;;;;;15607055;22;19923;-83
2023/09/12 19:15:33;;;;;;;;;;;19.10;99.90;;;;;;15589435;22;20341;-84
2023/09/12 19:21:38;;;;;;;;;;;19.20;99.90;;;;;;15608238;22;20345;-84
2023/09/12 19:27:41;;;;;;;;;;;19.20;99.90;;;;;;15613928;22;19929;-83
2023/09/12 19:33:43;;;;;;;;;;;19.20;99.90;;;;;;15588942;22;19930;-84
2023/09/12 19:39:45;;;;;;;;;;;19.20;99.90;;;;;;15631894;22;20160;-84
2023/09/12 19:45:47;;;;;;;;;;;19.10;99.90;;;;;;15588376;22;19922;-84
2023/09/12 19:51:49;;;;;;;;;;;19.10;99.90;;;;;;15629210;22;20069;-84
2023/09/12 19:57:51;;;;;;;;;;;19.00;99.90;;;;;;15631557;22;19919;-83
2023/09/12 20:03:53;;;;;;;;;;;19.00;99.90;;;;;;15606270;22;19923;-84
2023/09/12 20:09:55;;;;;;;;;;;19.10;99.90;;;;;;15597479;22;19927;-83
2023/09/12 20:15:57;;;;;;;;;;;19.00;99.90;;;;;;15602464;22;19922;-83
2023/09/12 20:21:59;;;;;;;;;;;19.00;99.90;;;;;;15625297;22;19923;-83
2023/09/12 20:28:00;;;;;;;;;;;19.20;99.90;;;;;;15600346;22;19919;-84
2023/09/12 20:34:02;;;;;;;;;;;19.10;99.90;;;;;;15585287;22;20349;-84
2023/09/12 20:40:05;;;;;;;;;;;19.10;99.90;;;;;;15678851;22;19978;-85
2023/09/12 20:46:08;;;;;;;;;;;19.30;99.90;;;;;;15622523;22;20386;-85
2023/09/12 20:52:10;;;;;;;;;;;19.30;99.90;;;;;;15596303;22;20324;-86
2023/09/12 20:58:13;;;;;;;;;;;19.40;99.90;;;;;;15602127;22;20339;-86
2023/09/12 21:04:14;;;;;;;;;;;19.20;99.90;;;;;;15630096;22;19925;-85
2023/09/12 21:10:16;;;;;;;;;;;19.20;99.90;;;;;;15653504;22;20277;-86
2023/09/12 21:16:18;;;;;;;;;;;19.00;99.90;;;;;;15609199;22;19923;-86
2023/09/12 21:22:20;;;;;;;;;;;18.80;99.90;;;;;;15606378;22;20010;-86
2023/09/12 21:28:22;;;;;;;;;;;18.60;99.90;;;;;;15598258;22;19923;-86
2023/09/12 21:34:27;;;;;;;;;;;18.40;99.90;;;;;;15596978;22;20561;-86
2023/09/12 21:40:29;;;;;;;;;;;18.40;99.90;;;;;;15600264;22;20222;-86
2023/09/12 21:46:30;;;;;;;;;;;18.30;99.90;;;;;;15626859;22;19926;-86
2023/09/12 21:52:33;;;;;;;;;;;18.30;99.90;;;;;;15598779;22;19923;-85
2023/09/12 21:58:34;;;;;;;;;;;18.30;99.90;;;;;;15627016;22;19923;-86
2023/09/12 22:04:36;;;;;;;;;;;18.30;99.90;;;;;;15603259;22;19968;-86
2023/09/12 22:10:38;;;;;;;;;;;18.40;99.90;;;;;;15627990;22;20052;-86
2023/09/12 22:16:40;;;;;;;;;;;18.30;99.90;;;;;;15600500;22;20333;-87
2023/09/12 22:22:42;;;;;;;;;;;18.40;99.90;;;;;;15598893;22;19964;-86
2023/09/12 22:28:44;;;;;;;;;;;18.50;99.90;;;;;;15598972;22;20041;-86
2023/09/12 22:34:46;;;;;;;;;;;18.50;99.90;;;;;;15619826;22;20065;-88
2023/09/12 22:40:48;;;;;;;;;;;18.40;99.90;;;;;;15606284;22;19922;-88
2023/09/12 22:46:50;;;;;;;;;;;18.30;99.90;;;;;;15601887;22;20355;-87
2023/09/12 22:52:51;;;;;;;;;;;17.90;99.90;;;;;;15630781;22;19919;-88
2023/09/12 22:58:53;;;;;;;;;;;17.90;99.90;;;;;;15596124;22;20246;-87
2023/09/12 23:04:55;;;;;;;;;;;17.70;99.90;;;;;;15609437;22;19926;-88
2023/09/12 23:10:57;;;;;;;;;;;17.70;99.90;;;;;;15600822;22;20335;-87
2023/09/12 23:16:58;;;;;;;;;;;17.60;99.90;;;;;;15605587;22;20384;-88
2023/09/12 23:23:00;;;;;;;;;;;17.70;99.90;;;;;;15609166;22;19972;-88
2023/09/12 23:29:02;;;;;;;;;;;17.70;99.90;;;;;;15600145;22;19923;-88
2023/09/12 23:35:04;;;;;;;;;;;17.60;99.90;;;;;;15539851;22;19923;-88
2023/09/12 23:41:06;;;;;;;;;;;17.50;99.90;;;;;;15555694;22;19919;-88
2023/09/12 23:47:08;;;;;;;;;;;17.50;99.90;;;;;;15548725;22;19927;-87
2023/09/12 23:53:10;;;;;;;;;;;17.60;99.90;;;;;;15550676;22;19998;-88
2023/09/12 23:59:11;;;;;;;;;;;17.60;99.90;;;;;;15542452;22;19966;-87
